Terminal Aerodrome Forecast
Issued by NWS

Home | Current Version | Previous Version | Graphics & Text | Print | Product List | Glossary On
Versions: 1 2 3 4 5 6 7 8 9 10 11 12 13
962
FTUS43 KLSX 202321
TAFSUS
TAF
KSUS 202321Z 2100/2124 19009KT P6SM SKC
     FM210300 20010KT P6SM FEW250 WS014/24040KT
     FM211400 23008KT P6SM BKN130
     FM211700 28008KT P6SM SCT110
     FM212000 32010KT P6SM SCT080=

USA.gov is the U.S. government's official web portal to all federal, state and local government web resources and services.